sensor_id;sensor_type;location;lat;lon;timestamp;P1;durP1;ratioP1;P2;durP2;ratioP2
39694;SDS011;25367;-35.352;149.036;2023-02-28T00:01:48;1.10;;;0.90;;
39694;SDS011;25367;-35.352;149.036;2023-02-28T00:04:17;1.38;;;0.80;;
39694;SDS011;25367;-35.352;149.036;2023-02-28T00:06:47;1.95;;;0.80;;
39694;SDS011;25367;-35.352;149.036;2023-02-28T00:09:16;2.15;;;0.90;;
39694;SDS011;25367;-35.352;149.036;2023-02-28T00:11:46;1.52;;;0.70;;
39694;SDS011;25367;-35.352;149.036;2023-02-28T00:14:17;1.48;;;0.90;;
39694;SDS011;25367;-35.352;149.036;2023-02-28T00:16:46;1.00;;;0.70;;
39694;SDS011;25367;-35.352;149.036;2023-02-28T00:19:16;0.88;;;0.63;;
39694;SDS011;25367;-35.352;149.036;2023-02-28T00:21:45;1.23;;;0.77;;
39694;SDS011;25367;-35.352;149.036;2023-02-28T00:24:15;1.17;;;0.75;;
39694;SDS011;25367;-35.352;149.036;2023-02-28T00:26:44;1.55;;;0.80;;
39694;SDS011;25367;-35.352;149.036;2023-02-28T00:29:16;4.07;;;0.75;;
39694;SDS011;25367;-35.352;149.036;2023-02-28T00:31:46;2.63;;;1.00;;
39694;SDS011;25367;-35.352;149.036;2023-02-28T00:34:15;2.55;;;1.00;;
39694;SDS011;25367;-35.352;149.036;2023-02-28T00:36:45;1.17;;;0.63;;
39694;SDS011;25367;-35.352;149.036;2023-02-28T00:39:15;1.42;;;0.73;;
39694;SDS011;25367;-35.352;149.036;2023-02-28T00:41:44;2.78;;;1.27;;
39694;SDS011;25367;-35.352;149.036;2023-02-28T00:44:16;1.73;;;0.82;;
39694;SDS011;25367;-35.352;149.036;2023-02-28T00:46:46;1.00;;;0.63;;
39694;SDS011;25367;-35.352;149.036;2023-02-28T00:49:15;2.67;;;1.02;;
39694;SDS011;25367;-35.352;149.036;2023-02-28T00:51:45;0.60;;;0.60;;
39694;SDS011;25367;-35.352;149.036;2023-02-28T00:54:14;1.42;;;0.70;;
39694;SDS011;25367;-35.352;149.036;2023-02-28T00:56:44;1.55;;;0.75;;
39694;SDS011;25367;-35.352;149.036;2023-02-28T00:59:13;1.15;;;0.88;;
39694;SDS011;25367;-35.352;149.036;2023-02-28T01:01:45;1.02;;;0.65;;
39694;SDS011;25367;-35.352;149.036;2023-02-28T01:04:16;2.25;;;0.75;;
39694;SDS011;25367;-35.352;149.036;2023-02-28T01:06:45;1.20;;;0.70;;
39694;SDS011;25367;-35.352;149.036;2023-02-28T01:09:15;2.47;;;0.98;;
39694;SDS011;25367;-35.352;149.036;2023-02-28T01:11:44;1.17;;;0.70;;
39694;SDS011;25367;-35.352;149.036;2023-02-28T01:14:14;0.65;;;0.43;;
39694;SDS011;25367;-35.352;149.036;2023-02-28T01:16:46;1.63;;;0.60;;
39694;SDS011;25367;-35.352;149.036;2023-02-28T01:19:16;0.90;;;0.55;;
39694;SDS011;25367;-35.352;149.036;2023-02-28T01:21:47;1.02;;;0.63;;
39694;SDS011;25367;-35.352;149.036;2023-02-28T01:24:16;0.95;;;0.63;;
39694;SDS011;25367;-35.352;149.036;2023-02-28T01:26:46;1.17;;;0.70;;
39694;SDS011;25367;-35.352;149.036;2023-02-28T01:29:15;3.28;;;0.90;;
39694;SDS011;25367;-35.352;149.036;2023-02-28T01:31:48;1.23;;;0.68;;
39694;SDS011;25367;-35.352;149.036;2023-02-28T01:34:17;1.08;;;0.52;;
39694;SDS011;25367;-35.352;149.036;2023-02-28T01:36:47;0.60;;;0.45;;
39694;SDS011;25367;-35.352;149.036;2023-02-28T01:39:16;0.50;;;0.45;;
39694;SDS011;25367;-35.352;149.036;2023-02-28T01:41:46;0.82;;;0.75;;
39694;SDS011;25367;-35.352;149.036;2023-02-28T01:47:24;0.80;;;0.60;;
39694;SDS011;25367;-35.352;149.036;2023-02-28T01:49:57;1.05;;;0.60;;
39694;SDS011;25367;-35.352;149.036;2023-02-28T01:52:31;0.75;;;0.60;;
39694;SDS011;25367;-35.352;149.036;2023-02-28T01:55:02;1.13;;;0.63;;
39694;SDS011;25367;-35.352;149.036;2023-02-28T01:57:34;2.17;;;0.80;;
39694;SDS011;25367;-35.352;149.036;2023-02-28T02:00:06;3.22;;;0.70;;
39694;SDS011;25367;-35.352;149.036;2023-02-28T02:02:42;0.90;;;0.60;;
39694;SDS011;25367;-35.352;149.036;2023-02-28T02:05:15;1.35;;;0.70;;
39694;SDS011;25367;-35.352;149.036;2023-02-28T02:07:46;1.52;;;0.68;;
39694;SDS011;25367;-35.352;149.036;2023-02-28T02:10:18;1.95;;;0.70;;
39694;SDS011;25367;-35.352;149.036;2023-02-28T02:12:55;1.30;;;0.60;;
39694;SDS011;25367;-35.352;149.036;2023-02-28T02:18:18;1.33;;;0.70;;
39694;SDS011;25367;-35.352;149.036;2023-02-28T02:30:06;1.17;;;0.65;;
39694;SDS011;25367;-35.352;149.036;2023-02-28T02:33:10;0.90;;;0.60;;
39694;SDS011;25367;-35.352;149.036;2023-02-28T02:36:04;1.10;;;0.63;;
39694;SDS011;25367;-35.352;149.036;2023-02-28T02:38:42;0.90;;;0.63;;
39694;SDS011;25367;-35.352;149.036;2023-02-28T02:41:17;1.42;;;0.70;;
39694;SDS011;25367;-35.352;149.036;2023-02-28T02:43:52;1.63;;;0.68;;
39694;SDS011;25367;-35.352;149.036;2023-02-28T02:46:27;0.68;;;0.52;;
39694;SDS011;25367;-35.352;149.036;2023-02-28T02:49:00;1.08;;;0.80;;
39694;SDS011;25367;-35.352;149.036;2023-02-28T02:51:37;0.50;;;0.50;;
39694;SDS011;25367;-35.352;149.036;2023-02-28T02:54:09;1.55;;;0.68;;
39694;SDS011;25367;-35.352;149.036;2023-02-28T02:59:11;0.90;;;0.70;;
39694;SDS011;25367;-35.352;149.036;2023-02-28T03:01:43;1.27;;;0.77;;
39694;SDS011;25367;-35.352;149.036;2023-02-28T03:04:13;1.08;;;0.60;;
39694;SDS011;25367;-35.352;149.036;2023-02-28T03:06:49;0.98;;;0.60;;
39694;SDS011;25367;-35.352;149.036;2023-02-28T03:09:19;0.80;;;0.60;;
39694;SDS011;25367;-35.352;149.036;2023-02-28T03:11:49;1.92;;;0.70;;
39694;SDS011;25367;-35.352;149.036;2023-02-28T03:14:30;1.23;;;0.50;;
39694;SDS011;25367;-35.352;149.036;2023-02-28T03:17:22;1.75;;;0.70;;
39694;SDS011;25367;-35.352;149.036;2023-02-28T03:20:09;0.88;;;0.70;;
39694;SDS011;25367;-35.352;149.036;2023-02-28T03:22:49;0.70;;;0.47;;
39694;SDS011;25367;-35.352;149.036;2023-02-28T03:25:30;0.80;;;0.60;;
39694;SDS011;25367;-35.352;149.036;2023-02-28T03:28:07;0.40;;;0.40;;
39694;SDS011;25367;-35.352;149.036;2023-02-28T03:30:45;1.02;;;0.60;;
39694;SDS011;25367;-35.352;149.036;2023-02-28T03:33:18;0.98;;;0.63;;
39694;SDS011;25367;-35.352;149.036;2023-02-28T03:35:51;1.00;;;0.70;;
39694;SDS011;25367;-35.352;149.036;2023-02-28T03:38:28;0.98;;;0.70;;
39694;SDS011;25367;-35.352;149.036;2023-02-28T03:41:02;0.73;;;0.35;;
39694;SDS011;25367;-35.352;149.036;2023-02-28T03:43:38;2.15;;;0.60;;
39694;SDS011;25367;-35.352;149.036;2023-02-28T03:46:11;1.02;;;0.55;;
39694;SDS011;25367;-35.352;149.036;2023-02-28T03:48:44;0.60;;;0.43;;
39694;SDS011;25367;-35.352;149.036;2023-02-28T03:51:18;0.88;;;0.60;;
39694;SDS011;25367;-35.352;149.036;2023-02-28T03:53:53;0.77;;;0.40;;
39694;SDS011;25367;-35.352;149.036;2023-02-28T03:56:26;1.58;;;0.65;;
39694;SDS011;25367;-35.352;149.036;2023-02-28T03:59:01;1.20;;;0.73;;
39694;SDS011;25367;-35.352;149.036;2023-02-28T04:01:35;0.75;;;0.47;;
39694;SDS011;25367;-35.352;149.036;2023-02-28T04:04:06;0.80;;;0.55;;
39694;SDS011;25367;-35.352;149.036;2023-02-28T04:06:36;1.13;;;0.50;;
39694;SDS011;25367;-35.352;149.036;2023-02-28T04:09:09;0.55;;;0.55;;
39694;SDS011;25367;-35.352;149.036;2023-02-28T04:11:40;0.90;;;0.52;;
39694;SDS011;25367;-35.352;149.036;2023-02-28T04:14:10;0.77;;;0.47;;
39694;SDS011;25367;-35.352;149.036;2023-02-28T04:16:40;0.82;;;0.50;;
39694;SDS011;25367;-35.352;149.036;2023-02-28T04:19:11;1.50;;;0.50;;
39694;SDS011;25367;-35.352;149.036;2023-02-28T04:21:41;0.95;;;0.50;;
39694;SDS011;25367;-35.352;149.036;2023-02-28T04:24:13;1.35;;;0.70;;
39694;SDS011;25367;-35.352;149.036;2023-02-28T04:26:44;0.82;;;0.60;;
39694;SDS011;25367;-35.352;149.036;2023-02-28T04:29:17;0.80;;;0.60;;
39694;SDS011;25367;-35.352;149.036;2023-02-28T04:31:47;0.45;;;0.40;;
39694;SDS011;25367;-35.352;149.036;2023-02-28T04:34:17;1.10;;;0.43;;
39694;SDS011;25367;-35.352;149.036;2023-02-28T04:36:47;1.48;;;0.68;;
39694;SDS011;25367;-35.352;149.036;2023-02-28T04:39:18;0.75;;;0.50;;
39694;SDS011;25367;-35.352;149.036;2023-02-28T04:41:48;0.55;;;0.45;;
39694;SDS011;25367;-35.352;149.036;2023-02-28T04:44:17;0.75;;;0.50;;
39694;SDS011;25367;-35.352;149.036;2023-02-28T04:46:47;1.23;;;0.73;;
39694;SDS011;25367;-35.352;149.036;2023-02-28T04:49:17;0.70;;;0.52;;
39694;SDS011;25367;-35.352;149.036;2023-02-28T04:51:46;0.30;;;0.30;;
39694;SDS011;25367;-35.352;149.036;2023-02-28T04:54:16;0.88;;;0.50;;
39694;SDS011;25367;-35.352;149.036;2023-02-28T04:56:48;0.65;;;0.47;;
39694;SDS011;25367;-35.352;149.036;2023-02-28T04:59:18;0.80;;;0.47;;
39694;SDS011;25367;-35.352;149.036;2023-02-28T05:01:48;1.17;;;0.63;;
39694;SDS011;25367;-35.352;149.036;2023-02-28T05:04:17;0.95;;;0.40;;
39694;SDS011;25367;-35.352;149.036;2023-02-28T05:06:47;1.05;;;0.50;;
39694;SDS011;25367;-35.352;149.036;2023-02-28T05:09:16;0.40;;;0.40;;
39694;SDS011;25367;-35.352;149.036;2023-02-28T05:11:49;0.93;;;0.32;;
39694;SDS011;25367;-35.352;149.036;2023-02-28T05:14:18;1.38;;;0.50;;
39694;SDS011;25367;-35.352;149.036;2023-02-28T05:16:48;1.25;;;0.57;;
39694;SDS011;25367;-35.352;149.036;2023-02-28T05:19:17;0.65;;;0.47;;
39694;SDS011;25367;-35.352;149.036;2023-02-28T05:21:50;0.40;;;0.40;;
39694;SDS011;25367;-35.352;149.036;2023-02-28T05:24:24;0.40;;;0.40;;
39694;SDS011;25367;-35.352;149.036;2023-02-28T05:26:54;0.43;;;0.35;;
39694;SDS011;25367;-35.352;149.036;2023-02-28T05:29:23;1.35;;;0.40;;
39694;SDS011;25367;-35.352;149.036;2023-02-28T05:31:52;2.63;;;0.50;;
39694;SDS011;25367;-35.352;149.036;2023-02-28T05:34:22;0.77;;;0.50;;
39694;SDS011;25367;-35.352;149.036;2023-02-28T05:36:51;0.50;;;0.45;;
39694;SDS011;25367;-35.352;149.036;2023-02-28T05:39:24;2.67;;;0.65;;
39694;SDS011;25367;-35.352;149.036;2023-02-28T05:44:22;2.80;;;0.50;;
39694;SDS011;25367;-35.352;149.036;2023-02-28T05:46:51;2.05;;;0.70;;
39694;SDS011;25367;-35.352;149.036;2023-02-28T05:49:21;5.03;;;1.13;;
39694;SDS011;25367;-35.352;149.036;2023-02-28T05:51:50;7.53;;;0.98;;
39694;SDS011;25367;-35.352;149.036;2023-02-28T05:54:20;7.38;;;1.05;;
39694;SDS011;25367;-35.352;149.036;2023-02-28T05:56:51;8.98;;;1.15;;
39694;SDS011;25367;-35.352;149.036;2023-02-28T05:59:21;8.75;;;0.98;;
39694;SDS011;25367;-35.352;149.036;2023-02-28T06:01:50;3.92;;;0.75;;
39694;SDS011;25367;-35.352;149.036;2023-02-28T06:04:20;13.05;;;1.08;;
39694;SDS011;25367;-35.352;149.036;2023-02-28T06:06:49;8.05;;;0.93;;
39694;SDS011;25367;-35.352;149.036;2023-02-28T06:09:19;8.30;;;1.38;;
39694;SDS011;25367;-35.352;149.036;2023-02-28T06:11:50;7.03;;;1.08;;
39694;SDS011;25367;-35.352;149.036;2023-02-28T06:14:20;8.10;;;1.00;;
39694;SDS011;25367;-35.352;149.036;2023-02-28T18:15:43;6.22;;;1.88;;
39694;SDS011;25367;-35.352;149.036;2023-02-28T18:18:13;3.67;;;1.90;;
39694;SDS011;25367;-35.352;149.036;2023-02-28T18:20:42;3.78;;;1.50;;
39694;SDS011;25367;-35.352;149.036;2023-02-28T18:23:11;2.60;;;1.55;;
39694;SDS011;25367;-35.352;149.036;2023-02-28T18:25:41;5.47;;;1.58;;
39694;SDS011;25367;-35.352;149.036;2023-02-28T18:28:10;2.95;;;1.50;;
39694;SDS011;25367;-35.352;149.036;2023-02-28T18:30:42;7.78;;;2.13;;
39694;SDS011;25367;-35.352;149.036;2023-02-28T18:33:11;4.28;;;1.80;;
39694;SDS011;25367;-35.352;149.036;2023-02-28T18:35:40;4.43;;;1.58;;
39694;SDS011;25367;-35.352;149.036;2023-02-28T18:38:11;6.53;;;2.15;;
39694;SDS011;25367;-35.352;149.036;2023-02-28T18:40:42;4.07;;;1.77;;
39694;SDS011;25367;-35.352;149.036;2023-02-28T18:43:18;4.03;;;1.45;;
39694;SDS011;25367;-35.352;149.036;2023-02-28T18:45:49;3.20;;;1.55;;
39694;SDS011;25367;-35.352;149.036;2023-02-28T18:48:18;3.53;;;1.80;;
39694;SDS011;25367;-35.352;149.036;2023-02-28T18:50:48;2.35;;;1.40;;
39694;SDS011;25367;-35.352;149.036;2023-02-28T18:53:18;2.80;;;1.33;;
39694;SDS011;25367;-35.352;149.036;2023-02-28T18:55:48;3.17;;;1.42;;
39694;SDS011;25367;-35.352;149.036;2023-02-28T18:58:17;4.00;;;1.45;;
39694;SDS011;25367;-35.352;149.036;2023-02-28T19:00:49;2.67;;;1.45;;
39694;SDS011;25367;-35.352;149.036;2023-02-28T19:03:18;3.55;;;1.63;;
39694;SDS011;25367;-35.352;149.036;2023-02-28T19:05:47;4.65;;;1.70;;
39694;SDS011;25367;-35.352;149.036;2023-02-28T19:08:20;2.72;;;1.50;;
39694;SDS011;25367;-35.352;149.036;2023-02-28T19:10:51;3.75;;;1.40;;
39694;SDS011;25367;-35.352;149.036;2023-02-28T19:13:20;2.03;;;1.38;;
39694;SDS011;25367;-35.352;149.036;2023-02-28T19:15:52;3.90;;;1.95;;
39694;SDS011;25367;-35.352;149.036;2023-02-28T19:18:29;6.60;;;1.98;;
39694;SDS011;25367;-35.352;149.036;2023-02-28T19:20:58;3.78;;;1.65;;
39694;SDS011;25367;-35.352;149.036;2023-02-28T19:23:30;1.92;;;1.30;;
39694;SDS011;25367;-35.352;149.036;2023-02-28T19:26:03;2.42;;;1.30;;
39694;SDS011;25367;-35.352;149.036;2023-02-28T19:28:33;3.20;;;1.48;;
39694;SDS011;25367;-35.352;149.036;2023-02-28T19:31:06;3.47;;;1.20;;
39694;SDS011;25367;-35.352;149.036;2023-02-28T19:33:40;2.55;;;1.67;;
39694;SDS011;25367;-35.352;149.036;2023-02-28T19:36:09;3.17;;;1.30;;
39694;SDS011;25367;-35.352;149.036;2023-02-28T19:38:40;4.00;;;1.70;;
39694;SDS011;25367;-35.352;149.036;2023-02-28T19:41:10;3.63;;;1.60;;
39694;SDS011;25367;-35.352;149.036;2023-02-28T19:43:40;3.03;;;1.35;;
39694;SDS011;25367;-35.352;149.036;2023-02-28T19:46:12;4.57;;;1.98;;
39694;SDS011;25367;-35.352;149.036;2023-02-28T19:48:41;2.90;;;1.50;;
39694;SDS011;25367;-35.352;149.036;2023-02-28T19:51:11;2.88;;;1.50;;
39694;SDS011;25367;-35.352;149.036;2023-02-28T19:53:41;2.72;;;1.48;;
39694;SDS011;25367;-35.352;149.036;2023-02-28T19:56:10;4.63;;;1.35;;
39694;SDS011;25367;-35.352;149.036;2023-02-28T19:58:40;1.83;;;1.38;;
39694;SDS011;25367;-35.352;149.036;2023-02-28T20:01:12;3.55;;;1.42;;
39694;SDS011;25367;-35.352;149.036;2023-02-28T20:03:43;1.60;;;1.25;;
39694;SDS011;25367;-35.352;149.036;2023-02-28T20:08:43;3.80;;;1.40;;
39694;SDS011;25367;-35.352;149.036;2023-02-28T20:11:13;3.78;;;1.45;;
39694;SDS011;25367;-35.352;149.036;2023-02-28T20:13:43;2.50;;;1.60;;
39694;SDS011;25367;-35.352;149.036;2023-02-28T20:16:15;3.53;;;1.40;;
39694;SDS011;25367;-35.352;149.036;2023-02-28T20:18:47;13.70;;;1.92;;
39694;SDS011;25367;-35.352;149.036;2023-02-28T20:21:17;5.05;;;1.52;;
39694;SDS011;25367;-35.352;149.036;2023-02-28T20:23:47;5.07;;;1.48;;
39694;SDS011;25367;-35.352;149.036;2023-02-28T20:26:16;4.57;;;1.40;;
39694;SDS011;25367;-35.352;149.036;2023-02-28T20:28:46;4.82;;;1.40;;
39694;SDS011;25367;-35.352;149.036;2023-02-28T20:31:18;10.45;;;1.83;;
39694;SDS011;25367;-35.352;149.036;2023-02-28T20:33:50;6.35;;;1.88;;
39694;SDS011;25367;-35.352;149.036;2023-02-28T20:36:19;7.88;;;1.67;;
39694;SDS011;25367;-35.352;149.036;2023-02-28T20:38:49;2.85;;;1.38;;
39694;SDS011;25367;-35.352;149.036;2023-02-28T20:41:19;3.42;;;1.23;;
39694;SDS011;25367;-35.352;149.036;2023-02-28T20:43:52;6.78;;;1.10;;
39694;SDS011;25367;-35.352;149.036;2023-02-28T20:46:24;4.95;;;1.40;;
39694;SDS011;25367;-35.352;149.036;2023-02-28T20:48:53;6.97;;;1.40;;
39694;SDS011;25367;-35.352;149.036;2023-02-28T20:51:23;4.07;;;1.20;;
39694;SDS011;25367;-35.352;149.036;2023-02-28T20:53:52;4.80;;;1.52;;
39694;SDS011;25367;-35.352;149.036;2023-02-28T20:56:22;3.28;;;1.40;;
39694;SDS011;25367;-35.352;149.036;2023-02-28T20:58:52;2.67;;;0.90;;
39694;SDS011;25367;-35.352;149.036;2023-02-28T21:01:25;6.72;;;1.23;;
39694;SDS011;25367;-35.352;149.036;2023-02-28T21:03:56;9.40;;;1.40;;
39694;SDS011;25367;-35.352;149.036;2023-02-28T21:06:27;6.07;;;1.38;;
39694;SDS011;25367;-35.352;149.036;2023-02-28T21:08:59;2.55;;;1.50;;
39694;SDS011;25367;-35.352;149.036;2023-02-28T21:11:30;5.60;;;1.48;;
39694;SDS011;25367;-35.352;149.036;2023-02-28T21:14:01;8.65;;;1.65;;
39694;SDS011;25367;-35.352;149.036;2023-02-28T21:16:35;3.65;;;1.50;;
39694;SDS011;25367;-35.352;149.036;2023-02-28T21:19:05;4.50;;;2.22;;
39694;SDS011;25367;-35.352;149.036;2023-02-28T21:21:35;5.13;;;1.60;;
39694;SDS011;25367;-35.352;149.036;2023-02-28T21:24:05;3.92;;;1.23;;
39694;SDS011;25367;-35.352;149.036;2023-02-28T21:26:37;4.63;;;1.60;;
39694;SDS011;25367;-35.352;149.036;2023-02-28T21:29:06;3.05;;;1.70;;
39694;SDS011;25367;-35.352;149.036;2023-02-28T21:31:38;4.50;;;1.63;;
39694;SDS011;25367;-35.352;149.036;2023-02-28T21:34:09;5.15;;;1.50;;
39694;SDS011;25367;-35.352;149.036;2023-02-28T21:36:39;5.03;;;1.83;;
39694;SDS011;25367;-35.352;149.036;2023-02-28T21:39:11;5.20;;;1.73;;
39694;SDS011;25367;-35.352;149.036;2023-02-28T21:41:43;2.92;;;1.55;;
39694;SDS011;25367;-35.352;149.036;2023-02-28T21:44:12;10.40;;;2.00;;
39694;SDS011;25367;-35.352;149.036;2023-02-28T21:46:45;3.75;;;1.70;;
39694;SDS011;25367;-35.352;149.036;2023-02-28T21:49:16;4.60;;;1.77;;
39694;SDS011;25367;-35.352;149.036;2023-02-28T21:51:45;6.90;;;1.77;;
39694;SDS011;25367;-35.352;149.036;2023-02-28T21:54:15;4.05;;;1.80;;
39694;SDS011;25367;-35.352;149.036;2023-02-28T21:56:44;4.13;;;1.98;;
39694;SDS011;25367;-35.352;149.036;2023-02-28T21:59:13;8.05;;;2.00;;
39694;SDS011;25367;-35.352;149.036;2023-02-28T22:01:47;6.35;;;1.70;;
39694;SDS011;25367;-35.352;149.036;2023-02-28T22:04:17;9.35;;;2.15;;
39694;SDS011;25367;-35.352;149.036;2023-02-28T22:06:47;7.57;;;3.45;;
39694;SDS011;25367;-35.352;149.036;2023-02-28T22:09:17;23.63;;;3.25;;
39694;SDS011;25367;-35.352;149.036;2023-02-28T22:11:47;7.07;;;2.95;;
39694;SDS011;25367;-35.352;149.036;2023-02-28T22:14:17;4.65;;;2.30;;
39694;SDS011;25367;-35.352;149.036;2023-02-28T22:16:50;5.13;;;3.08;;
39694;SDS011;25367;-35.352;149.036;2023-02-28T22:19:19;8.43;;;3.05;;
39694;SDS011;25367;-35.352;149.036;2023-02-28T22:21:49;8.05;;;2.72;;
39694;SDS011;25367;-35.352;149.036;2023-02-28T22:24:19;5.97;;;2.55;;
39694;SDS011;25367;-35.352;149.036;2023-02-28T22:26:49;5.32;;;3.00;;
39694;SDS011;25367;-35.352;149.036;2023-02-28T22:29:18;10.18;;;3.97;;
39694;SDS011;25367;-35.352;149.036;2023-02-28T22:31:50;5.35;;;3.22;;
39694;SDS011;25367;-35.352;149.036;2023-02-28T22:34:19;5.72;;;3.40;;
39694;SDS011;25367;-35.352;149.036;2023-02-28T22:36:49;5.85;;;3.83;;
39694;SDS011;25367;-35.352;149.036;2023-02-28T22:39:19;9.55;;;3.33;;
39694;SDS011;25367;-35.352;149.036;2023-02-28T22:41:48;6.45;;;3.20;;
39694;SDS011;25367;-35.352;149.036;2023-02-28T22:44:20;4.50;;;3.13;;
39694;SDS011;25367;-35.352;149.036;2023-02-28T22:46:53;6.80;;;3.70;;
39694;SDS011;25367;-35.352;149.036;2023-02-28T22:49:23;5.13;;;3.90;;
39694;SDS011;25367;-35.352;149.036;2023-02-28T22:51:52;6.20;;;3.97;;
39694;SDS011;25367;-35.352;149.036;2023-02-28T22:54:22;7.13;;;4.32;;
39694;SDS011;25367;-35.352;149.036;2023-02-28T22:56:51;5.72;;;4.07;;
39694;SDS011;25367;-35.352;149.036;2023-02-28T22:59:21;6.80;;;4.22;;
39694;SDS011;25367;-35.352;149.036;2023-02-28T23:01:52;6.32;;;4.20;;
39694;SDS011;25367;-35.352;149.036;2023-02-28T23:04:22;7.45;;;4.20;;
39694;SDS011;25367;-35.352;149.036;2023-02-28T23:06:51;5.95;;;4.47;;
39694;SDS011;25367;-35.352;149.036;2023-02-28T23:09:21;6.40;;;4.13;;
39694;SDS011;25367;-35.352;149.036;2023-02-28T23:11:50;9.68;;;4.30;;
39694;SDS011;25367;-35.352;149.036;2023-02-28T23:14:20;10.63;;;4.35;;
39694;SDS011;25367;-35.352;149.036;2023-02-28T23:16:50;7.60;;;4.53;;
39694;SDS011;25367;-35.352;149.036;2023-02-28T23:19:23;5.28;;;4.18;;
39694;SDS011;25367;-35.352;149.036;2023-02-28T23:21:54;6.45;;;4.50;;
39694;SDS011;25367;-35.352;149.036;2023-02-28T23:24:24;8.50;;;4.93;;
39694;SDS011;25367;-35.352;149.036;2023-02-28T23:26:56;10.30;;;4.63;;
39694;SDS011;25367;-35.352;149.036;2023-02-28T23:29:27;5.55;;;4.60;;
39694;SDS011;25367;-35.352;149.036;2023-02-28T23:31:58;7.22;;;4.65;;
39694;SDS011;25367;-35.352;149.036;2023-02-28T23:34:28;6.38;;;4.22;;
39694;SDS011;25367;-35.352;149.036;2023-02-28T23:36:57;6.82;;;4.50;;
39694;SDS011;25367;-35.352;149.036;2023-02-28T23:39:28;9.30;;;4.43;;
39694;SDS011;25367;-35.352;149.036;2023-02-28T23:41:58;5.63;;;4.53;;
39694;SDS011;25367;-35.352;149.036;2023-02-28T23:44:27;5.72;;;4.45;;
39694;SDS011;25367;-35.352;149.036;2023-02-28T23:46:59;7.68;;;4.53;;
39694;SDS011;25367;-35.352;149.036;2023-02-28T23:49:28;8.23;;;4.55;;
39694;SDS011;25367;-35.352;149.036;2023-02-28T23:51:58;7.95;;;4.53;;
39694;SDS011;25367;-35.352;149.036;2023-02-28T23:54:27;6.63;;;4.50;;
39694;SDS011;25367;-35.352;149.036;2023-02-28T23:56:57;5.53;;;4.47;;
39694;SDS011;25367;-35.352;149.036;2023-02-28T23:59:27;7.07;;;4.68;;
